Terminal Aerodrome Forecast
Issued by NWS Green Bay, WI

Home | Current Version | Previous Version | Graphics & Text | Print | Product List | Glossary On
Versions: 1 2 3 4 5 6 7 8 9 10 11 12 13 14 15 16 17 18 19 20 21 22 23 24 25 26 27 28 29 30 31 32 33 34 35 36
000
FTUS43 KGRB 280000 AAA
TAFGRB
TAF AMD
KGRB 280033Z 2801/2824 00000KT P6SM OVC030
      TEMPO 2801/2803 SCT030
     FM280500 00000KT 5SM BR OVC022
     FM281700 17005KT 6SM BR SCT022 BKN070
     FM282100 15010KT P6SM SCT025 BKN060=

USA.gov is the U.S. government's official web portal to all federal, state and local government web resources and services.